Time;durP1;ratioP1;P1;durP2;ratioP2;P2;SDS_P1;SDS_P2;PMS_P1;PMS_P2;Temp;Humidity;BMP_temperature;BMP_pressure;BME280_temperature;BME280_humidity;BME280_pressure;Samples;Min_cycle;Max_cycle;Signal;HPM_P1;HPM_P2
2021/07/23 00:00:28;;;;;;;8.85;4.95;;;;;;;;;;6276064;22;20136;-66
2021/07/23 00:02:54;;;;;;;6.38;4.30;;;;;;;;;;6276146;22;20140;-66
2021/07/23 00:05:20;;;;;;;6.75;4.22;;;;;;;;;;6276026;22;20175;-68
2021/07/23 00:07:46;;;;;;;4.70;4.22;;;;;;;;;;6276149;22;20197;-66
2021/07/23 00:10:12;;;;;;;6.47;3.90;;;;;;;;;;6276009;22;20205;-67
2021/07/23 00:12:38;;;;;;;6.97;3.97;;;;;;;;;;6276097;22;20481;-66
2021/07/23 00:15:04;;;;;;;7.03;3.80;;;;;;;;;;6275950;22;20623;-66
2021/07/23 00:17:30;;;;;;;5.57;3.95;;;;;;;;;;6276159;22;20242;-68
2021/07/23 00:19:56;;;;;;;5.93;4.20;;;;;;;;;;6276030;22;20168;-66
2021/07/23 00:22:21;;;;;;;11.32;4.50;;;;;;;;;;6276742;22;20135;-66
2021/07/23 00:24:48;;;;;;;6.28;3.75;;;;;;;;;;6277930;22;20139;-66
2021/07/23 00:27:15;;;;;;;5.13;3.80;;;;;;;;;;6278016;22;20140;-66
2021/07/23 00:29:42;;;;;;;4.93;3.80;;;;;;;;;;6278234;22;20144;-66
2021/07/23 00:32:08;;;;;;;7.38;3.85;;;;;;;;;;6277958;22;20200;-66
2021/07/23 00:34:34;;;;;;;5.18;3.70;;;;;;;;;;6277854;22;20140;-66
2021/07/23 00:37:00;;;;;;;6.55;4.28;;;;;;;;;;6277805;22;20194;-66
2021/07/23 00:39:26;;;;;;;5.15;3.88;;;;;;;;;;6278117;22;20300;-68
2021/07/23 00:41:52;;;;;;;6.72;4.47;;;;;;;;;;6278143;22;20238;-66
2021/07/23 00:44:18;;;;;;;5.25;4.20;;;;;;;;;;6278054;22;20179;-68
2021/07/23 00:46:44;;;;;;;7.00;3.60;;;;;;;;;;6278186;22;20211;-66
2021/07/23 00:49:10;;;;;;;5.68;4.30;;;;;;;;;;6277663;22;20552;-66
2021/07/23 00:51:36;;;;;;;6.25;4.38;;;;;;;;;;6278265;22;20146;-66
2021/07/23 00:54:03;;;;;;;6.43;3.72;;;;;;;;;;6277885;22;20139;-66
2021/07/23 00:56:29;;;;;;;5.07;3.97;;;;;;;;;;6277787;22;20179;-66
2021/07/23 00:58:55;;;;;;;4.38;3.83;;;;;;;;;;6277896;22;20136;-66
2021/07/23 01:01:22;;;;;;;4.38;3.85;;;;;;;;;;6277614;22;20515;-68
2021/07/23 01:03:47;;;;;;;6.97;4.15;;;;;;;;;;6278213;22;20197;-66
2021/07/23 01:06:13;;;;;;;6.70;4.28;;;;;;;;;;6277796;22;20139;-66
2021/07/23 01:08:40;;;;;;;5.85;3.90;;;;;;;;;;6277915;22;20143;-66
2021/07/23 01:11:06;;;;;;;5.10;4.05;;;;;;;;;;6278123;22;20223;-66
2021/07/23 01:13:32;;;;;;;7.45;4.20;;;;;;;;;;6277927;22;20469;-68
2021/07/23 01:15:57;;;;;;;6.57;4.07;;;;;;;;;;6277793;22;20254;-68
2021/07/23 01:18:23;;;;;;;6.32;4.32;;;;;;;;;;6278245;22;20145;-66
2021/07/23 01:20:51;;;;;;;7.55;4.25;;;;;;;;;;6278197;22;20175;-66
2021/07/23 01:23:31;;;;;;;4.22;3.75;;;;;;;;;;6278589;22;20144;-66
2021/07/23 01:26:00;;;;;;;4.53;3.38;;;;;;;;;;6278129;22;20148;-66
2021/07/23 01:28:30;;;;;;;6.90;4.07;;;;;;;;;;6278520;22;20144;-68
2021/07/23 01:30:58;;;;;;;6.25;3.70;;;;;;;;;;6278402;22;20159;-68
2021/07/23 01:33:24;;;;;;;5.40;3.70;;;;;;;;;;6278401;22;20151;-66
2021/07/23 01:35:50;;;;;;;6.05;3.80;;;;;;;;;;6277957;22;20198;-67
2021/07/23 01:38:17;;;;;;;8.82;4.18;;;;;;;;;;6278145;22;20614;-66
2021/07/23 01:40:46;;;;;;;5.80;3.80;;;;;;;;;;6278005;22;20206;-66
2021/07/23 01:43:14;;;;;;;7.38;4.30;;;;;;;;;;6278078;22;20143;-66
2021/07/23 01:45:40;;;;;;;5.07;4.35;;;;;;;;;;6278226;22;20213;-67
2021/07/23 01:48:06;;;;;;;6.32;3.92;;;;;;;;;;6278042;22;20150;-66
2021/07/23 01:50:32;;;;;;;6.32;4.40;;;;;;;;;;6277908;22;20222;-68
2021/07/23 01:52:58;;;;;;;5.80;4.28;;;;;;;;;;6278292;22;20215;-68
2021/07/23 01:55:24;;;;;;;6.72;3.95;;;;;;;;;;6277681;22;20212;-68
2021/07/23 01:57:50;;;;;;;4.57;3.40;;;;;;;;;;6277820;22;20155;-66
2021/07/23 02:00:16;;;;;;;5.93;4.05;;;;;;;;;;6277790;22;20539;-66
2021/07/23 02:02:42;;;;;;;7.82;4.20;;;;;;;;;;6277879;22;20189;-66
2021/07/23 02:05:08;;;;;;;6.45;4.60;;;;;;;;;;6278139;22;20468;-66
2021/07/23 02:07:34;;;;;;;6.50;4.18;;;;;;;;;;6277755;22;20551;-66
2021/07/23 02:10:00;;;;;;;5.82;4.10;;;;;;;;;;6278025;22;20174;-67
2021/07/23 02:12:26;;;;;;;5.93;4.15;;;;;;;;;;6278121;22;20229;-68
2021/07/23 02:14:52;;;;;;;6.38;4.20;;;;;;;;;;6277524;22;20139;-66
2021/07/23 02:17:18;;;;;;;4.90;4.07;;;;;;;;;;6277358;22;20146;-66
2021/07/23 02:19:44;;;;;;;6.80;4.22;;;;;;;;;;6277458;22;20197;-66
2021/07/23 02:22:10;;;;;;;5.00;3.83;;;;;;;;;;6277273;22;20506;-66
2021/07/23 02:24:36;;;;;;;6.35;4.18;;;;;;;;;;6277293;22;20140;-65
2021/07/23 02:27:02;;;;;;;6.80;4.28;;;;;;;;;;6277243;22;20150;-67
2021/07/23 02:29:28;;;;;;;7.32;4.05;;;;;;;;;;6277268;22;20148;-66
2021/07/23 02:31:54;;;;;;;5.97;4.07;;;;;;;;;;6277378;22;20265;-67
2021/07/23 02:34:19;;;;;;;6.07;3.90;;;;;;;;;;6277458;22;20560;-66
2021/07/23 02:36:45;;;;;;;7.57;4.20;;;;;;;;;;6276839;22;20245;-66
2021/07/23 02:39:11;;;;;;;6.00;3.90;;;;;;;;;;6277054;22;20142;-66
2021/07/23 02:41:37;;;;;;;5.28;4.35;;;;;;;;;;6277462;22;20159;-67
2021/07/23 02:44:04;;;;;;;9.23;4.47;;;;;;;;;;6276812;22;20135;-66
2021/07/23 02:46:30;;;;;;;7.95;4.32;;;;;;;;;;6276521;22;20186;-67
2021/07/23 02:48:56;;;;;;;5.97;4.43;;;;;;;;;;6277257;22;20143;-66
2021/07/23 02:51:22;;;;;;;5.50;4.13;;;;;;;;;;6276766;22;20143;-66
2021/07/23 02:53:48;;;;;;;7.65;4.25;;;;;;;;;;6276846;22;20609;-66
2021/07/23 02:56:14;;;;;;;6.60;4.72;;;;;;;;;;6276566;22;20179;-66
2021/07/23 02:58:42;;;;;;;8.23;4.15;;;;;;;;;;6276774;22;20131;-66
2021/07/23 03:01:08;;;;;;;5.57;4.10;;;;;;;;;;6276962;22;20149;-66
2021/07/23 03:03:34;;;;;;;5.95;4.45;;;;;;;;;;6276673;22;20234;-67
2021/07/23 03:06:00;;;;;;;5.05;4.53;;;;;;;;;;6276857;22;20185;-67
2021/07/23 03:08:26;;;;;;;4.95;4.15;;;;;;;;;;6276622;22;20147;-66
2021/07/23 03:10:52;;;;;;;5.85;4.57;;;;;;;;;;6276535;22;20142;-67
2021/07/23 03:13:18;;;;;;;6.40;4.60;;;;;;;;;;6276895;22;20153;-67
2021/07/23 03:15:44;;;;;;;8.43;4.45;;;;;;;;;;6276420;22;20159;-66
2021/07/23 03:18:10;;;;;;;7.05;4.55;;;;;;;;;;6276513;22;20145;-67
2021/07/23 03:20:39;;;;;;;7.20;4.63;;;;;;;;;;6276564;22;20479;-67
2021/07/23 03:23:05;;;;;;;5.72;4.60;;;;;;;;;;6276431;22;20140;-66
2021/07/23 03:25:31;;;;;;;5.25;4.38;;;;;;;;;;6276637;22;20151;-67
2021/07/23 03:27:57;;;;;;;7.38;5.00;;;;;;;;;;6276250;22;20272;-67
2021/07/23 03:30:23;;;;;;;6.10;4.43;;;;;;;;;;6276358;22;20189;-67
2021/07/23 03:32:49;;;;;;;6.97;4.80;;;;;;;;;;6276252;22;20547;-67
2021/07/23 03:35:15;;;;;;;7.35;4.95;;;;;;;;;;6276261;22;20163;-67
2021/07/23 03:37:41;;;;;;;5.30;4.35;;;;;;;;;;6276122;22;20143;-67
2021/07/23 03:40:08;;;;;;;5.75;4.75;;;;;;;;;;6276311;22;20193;-66
2021/07/23 03:42:34;;;;;;;6.93;5.05;;;;;;;;;;6276222;22;20218;-66
2021/07/23 03:45:00;;;;;;;6.60;4.40;;;;;;;;;;6276617;22;20150;-66
2021/07/23 03:47:26;;;;;;;6.90;5.32;;;;;;;;;;6276104;22;20169;-66
2021/07/23 03:49:52;;;;;;;7.05;4.85;;;;;;;;;;6249422;22;20143;-66
2021/07/23 03:52:18;;;;;;;8.85;4.78;;;;;;;;;;6276136;22;20147;-66
2021/07/23 03:54:44;;;;;;;6.15;5.13;;;;;;;;;;6276201;22;20210;-66
2021/07/23 03:57:10;;;;;;;6.13;5.30;;;;;;;;;;6276424;22;20171;-66
2021/07/23 03:59:36;;;;;;;8.60;4.85;;;;;;;;;;6278660;22;20154;-69
2021/07/23 04:02:02;;;;;;;6.07;5.13;;;;;;;;;;6278478;22;20163;-67
2021/07/23 04:04:28;;;;;;;6.00;4.70;;;;;;;;;;6278264;22;20136;-66
2021/07/23 04:07:00;;;;;;;6.65;5.40;;;;;;;;;;6278517;22;20590;-66
2021/07/23 04:09:26;;;;;;;6.65;5.10;;;;;;;;;;6278234;22;20139;-66
2021/07/23 04:11:53;;;;;;;7.57;5.07;;;;;;;;;;6278394;22;20158;-67
2021/07/23 04:14:19;;;;;;;5.65;5.05;;;;;;;;;;6278487;22;20197;-67
2021/07/23 04:16:45;;;;;;;8.40;5.60;;;;;;;;;;6278278;22;20531;-68
2021/07/23 04:19:11;;;;;;;6.93;5.30;;;;;;;;;;6278119;22;20136;-66
2021/07/23 04:21:38;;;;;;;8.00;5.18;;;;;;;;;;6278327;22;20147;-66
2021/07/23 04:24:05;;;;;;;7.03;5.00;;;;;;;;;;6278369;22;20170;-66
2021/07/23 04:26:31;;;;;;;7.88;5.43;;;;;;;;;;6278627;22;20500;-67
2021/07/23 04:28:57;;;;;;;8.07;5.05;;;;;;;;;;6277973;22;20222;-67
2021/07/23 04:31:23;;;;;;;9.02;5.28;;;;;;;;;;6278354;22;20420;-68
2021/07/23 04:33:49;;;;;;;6.20;5.28;;;;;;;;;;6277920;22;20146;-67
2021/07/23 04:36:15;;;;;;;10.60;5.82;;;;;;;;;;6278215;22;20391;-67
2021/07/23 04:38:41;;;;;;;7.53;5.85;;;;;;;;;;6277845;22;20139;-67
2021/07/23 04:41:07;;;;;;;8.05;5.35;;;;;;;;;;6277999;22;20147;-66
2021/07/23 04:43:33;;;;;;;9.85;6.10;;;;;;;;;;6278229;22;20559;-67
2021/07/23 04:45:59;;;;;;;7.90;5.43;;;;;;;;;;6277956;22;20139;-67
2021/07/23 04:48:25;;;;;;;7.78;5.40;;;;;;;;;;6251154;22;20170;-66
2021/07/23 04:50:51;;;;;;;6.95;5.25;;;;;;;;;;6278277;22;20247;-66
2021/07/23 04:53:17;;;;;;;8.50;5.30;;;;;;;;;;6277808;22;20175;-66
2021/07/23 04:55:49;;;;;;;7.10;5.38;;;;;;;;;;6278028;22;20236;-66
2021/07/23 04:58:16;;;;;;;9.20;5.15;;;;;;;;;;6278210;22;20243;-67
2021/07/23 05:00:42;;;;;;;7.22;5.88;;;;;;;;;;6278156;22;20143;-66
2021/07/23 05:03:08;;;;;;;7.95;5.47;;;;;;;;;;6251386;22;20232;-66
2021/07/23 05:05:35;;;;;;;6.18;5.45;;;;;;;;;;6278183;22;20143;-66
2021/07/23 05:08:01;;;;;;;7.35;5.82;;;;;;;;;;6277886;22;20207;-67
2021/07/23 05:10:27;;;;;;;8.02;5.75;;;;;;;;;;6278337;22;20143;-66
2021/07/23 05:12:53;;;;;;;9.88;6.75;;;;;;;;;;6277935;22;20219;-66
2021/07/23 05:15:19;;;;;;;9.15;6.70;;;;;;;;;;6278382;22;20257;-66
2021/07/23 05:17:45;;;;;;;12.23;7.05;;;;;;;;;;6278126;22;20139;-67
2021/07/23 05:20:11;;;;;;;10.40;6.60;;;;;;;;;;6278209;22;20146;-66
2021/07/23 05:22:38;;;;;;;9.77;6.25;;;;;;;;;;6278049;22;20197;-66
2021/07/23 05:25:05;;;;;;;11.05;6.80;;;;;;;;;;6278465;22;20169;-66
2021/07/23 05:27:31;;;;;;;11.18;7.25;;;;;;;;;;6277960;22;20147;-67
2021/07/23 05:29:59;;;;;;;9.43;6.82;;;;;;;;;;6277905;22;20139;-67
2021/07/23 05:32:25;;;;;;;9.57;6.97;;;;;;;;;;6277871;22;20187;-66
2021/07/23 05:34:51;;;;;;;10.60;7.45;;;;;;;;;;6278092;22;20296;-66
2021/07/23 05:37:17;;;;;;;11.32;7.47;;;;;;;;;;6278010;22;20673;-66
2021/07/23 05:39:43;;;;;;;8.15;7.30;;;;;;;;;;6277706;22;20240;-66
2021/07/23 05:42:09;;;;;;;10.75;7.50;;;;;;;;;;6277766;22;20249;-66
2021/07/23 05:44:35;;;;;;;8.75;7.30;;;;;;;;;;6277637;22;20139;-66
2021/07/23 05:47:01;;;;;;;10.75;7.80;;;;;;;;;;6277672;22;20166;-66
2021/07/23 05:49:28;;;;;;;13.25;8.10;;;;;;;;;;6277509;22;20140;-66
2021/07/23 05:51:54;;;;;;;9.85;7.25;;;;;;;;;;6277471;22;20140;-66
2021/07/23 05:54:20;;;;;;;12.60;7.90;;;;;;;;;;6277674;22;20179;-66
2021/07/23 05:56:46;;;;;;;11.55;7.72;;;;;;;;;;6277618;22;20463;-66
2021/07/23 05:59:12;;;;;;;11.00;7.80;;;;;;;;;;6277207;22;20139;-66
2021/07/23 06:01:38;;;;;;;13.15;8.35;;;;;;;;;;6277261;22;20585;-66
2021/07/23 06:04:04;;;;;;;11.25;7.65;;;;;;;;;;6277198;22;20171;-66
2021/07/23 06:06:30;;;;;;;12.07;7.85;;;;;;;;;;6277714;22;20181;-66
2021/07/23 06:09:00;;;;;;;11.23;8.07;;;;;;;;;;6277296;22;20528;-67
2021/07/23 06:11:26;;;;;;;9.45;7.05;;;;;;;;;;6277336;22;20577;-67
2021/07/23 06:13:53;;;;;;;12.20;8.25;;;;;;;;;;6277105;22;20145;-67
2021/07/23 06:16:19;;;;;;;8.57;7.40;;;;;;;;;;6277051;22;20263;-66
2021/07/23 06:18:45;;;;;;;8.50;7.50;;;;;;;;;;6277036;22;20149;-67
2021/07/23 06:21:11;;;;;;;10.43;7.45;;;;;;;;;;6276703;22;20501;-67
2021/07/23 06:23:37;;;;;;;9.15;7.50;;;;;;;;;;6276940;22;20146;-66
2021/07/23 06:26:04;;;;;;;9.57;7.70;;;;;;;;;;6276959;22;20609;-67
2021/07/23 06:28:30;;;;;;;9.70;7.15;;;;;;;;;;6276835;22;20139;-67
2021/07/23 06:31:00;;;;;;;10.02;7.53;;;;;;;;;;6276895;22;20268;-67
2021/07/23 06:33:25;;;;;;;9.68;6.97;;;;;;;;;;6276731;22;20197;-66
2021/07/23 06:35:51;;;;;;;12.82;7.72;;;;;;;;;;6276863;22;20162;-68
2021/07/23 06:38:17;;;;;;;11.93;7.68;;;;;;;;;;6276816;22;20167;-68
2021/07/23 06:40:43;;;;;;;10.93;7.10;;;;;;;;;;6276873;22;20181;-67
2021/07/23 06:43:09;;;;;;;8.77;6.75;;;;;;;;;;6276721;22;20135;-66
2021/07/23 06:45:35;;;;;;;12.05;7.60;;;;;;;;;;6276740;22;20143;-66
2021/07/23 06:48:01;;;;;;;11.80;6.97;;;;;;;;;;6276823;22;20273;-66
2021/07/23 06:50:27;;;;;;;8.77;7.55;;;;;;;;;;6249855;22;20499;-66
2021/07/23 06:52:53;;;;;;;8.95;7.10;;;;;;;;;;6277124;22;20437;-68
2021/07/23 06:55:19;;;;;;;9.52;6.75;;;;;;;;;;6276473;22;20150;-66
2021/07/23 06:57:45;;;;;;;10.45;7.25;;;;;;;;;;6276817;22;20170;-66
2021/07/23 07:00:11;;;;;;;9.40;7.72;;;;;;;;;;6276223;22;20147;-67
2021/07/23 07:02:37;;;;;;;9.88;5.97;;;;;;;;;;6249810;22;20154;-68
2021/07/23 07:05:03;;;;;;;9.18;6.65;;;;;;;;;;6276265;22;20139;-68
2021/07/23 07:07:29;;;;;;;9.60;6.88;;;;;;;;;;6276459;22;20136;-68
2021/07/23 07:09:55;;;;;;;8.45;6.10;;;;;;;;;;6276567;22;20135;-68
2021/07/23 07:12:21;;;;;;;11.23;6.70;;;;;;;;;;6276598;22;20150;-51
2021/07/23 07:14:47;;;;;;;10.15;7.00;;;;;;;;;;6276008;22;20162;-49
2021/07/23 07:17:13;;;;;;;11.45;7.30;;;;;;;;;;6276056;22;20249;-50
2021/07/23 07:19:39;;;;;;;10.18;7.10;;;;;;;;;;6276193;22;20139;-50
2021/07/23 07:28:03;;;;;;;9.98;6.47;;;;;;;;;;6289590;22;20199;31
2021/07/23 07:39:27;;;;;;;9.45;5.90;;;;;;;;;;6262255;22;20539;31
2021/07/23 07:53:23;;;;;;;6.68;5.22;;;;;;;;;;6261843;22;20546;31
2021/07/23 08:00:17;;;;;;;6.88;4.45;;;;;;;;;;6261962;22;20556;31
2021/07/23 08:11:24;;;;;;;6.68;4.80;;;;;;;;;;6345231;22;20203;31
2021/07/23 08:33:50;;;;;;;6.07;4.43;;;;;;;;;;6258536;22;20676;31
2021/07/23 08:40:32;;;;;;;6.75;4.57;;;;;;;;;;6290331;22;20519;31
2021/07/23 08:49:35;;;;;;;8.32;4.45;;;;;;;;;;6195006;22;20194;31
2021/07/23 08:56:13;;;;;;;5.53;4.68;;;;;;;;;;6196489;22;20205;31
2021/07/23 09:00:17;;;;;;;8.25;4.93;;;;;;;;;;6291156;22;20526;-65
2021/07/23 09:09:38;;;;;;;9.05;5.70;;;;;;;;;;6134820;23;20721;-64
2021/07/23 09:23:38;;;;;;;6.60;4.40;;;;;;;;;;6257381;22;20204;31
2021/07/23 09:37:09;;;;;;;8.07;5.10;;;;;;;;;;6254289;22;20204;31
2021/07/23 09:43:56;;;;;;;7.13;5.35;;;;;;;;;;6133135;23;20666;-65
2021/07/23 09:50:24;;;;;;;6.13;4.93;;;;;;;;;;5751619;23;20308;31
2021/07/23 09:57:16;;;;;;;7.70;4.68;;;;;;;;;;6224817;22;20204;31
2021/07/23 10:04:16;;;;;;;6.13;5.10;;;;;;;;;;6149153;23;20206;31
2021/07/23 10:11:23;;;;;;;6.95;4.50;;;;;;;;;;6293375;22;20200;-63
2021/07/23 10:18:10;;;;;;;4.78;3.75;;;;;;;;;;6256630;22;20200;31
2021/07/23 10:25:09;;;;;;;6.10;3.92;;;;;;;;;;6257067;22;20191;-65
2021/07/23 10:31:53;;;;;;;6.00;4.18;;;;;;;;;;6225016;22;20197;31
2021/07/23 10:39:05;;;;;;;8.55;3.65;;;;;;;;;;6256479;22;20204;31
2021/07/23 10:43:30;;;;;;;5.95;4.10;;;;;;;;;;6288962;22;20510;31
2021/07/23 10:50:07;;;;;;;6.88;4.38;;;;;;;;;;6166308;22;20531;31
2021/07/23 11:04:09;;;;;;;4.65;3.97;;;;;;;;;;6258379;22;21862;-64
2021/07/23 11:06:38;;;;;;;5.22;3.67;;;;;;;;;;6179440;22;20220;31
2021/07/23 11:13:21;;;;;;;6.05;4.32;;;;;;;;;;6170726;23;20209;31
2021/07/23 11:24:37;;;;;;;4.57;3.72;;;;;;;;;;6203970;22;20526;31
2021/07/23 11:34:04;;;;;;;5.90;3.85;;;;;;;;;;6178495;22;20194;31
2021/07/23 11:41:09;;;;;;;5.57;3.65;;;;;;;;;;6256325;22;20188;-63
2021/07/23 11:48:08;;;;;;;5.10;3.80;;;;;;;;;;6226089;22;20197;31
2021/07/23 11:55:05;;;;;;;3.95;3.33;;;;;;;;;;6289765;22;20207;31
2021/07/23 11:59:31;;;;;;;5.70;3.63;;;;;;;;;;6290837;22;21818;31
2021/07/23 12:12:46;;;;;;;5.57;3.60;;;;;;;;;;6228064;22;20532;31
2021/07/23 12:21:51;;;;;;;6.00;3.20;;;;;;;;;;6136456;23;20191;31
2021/07/23 12:28:30;;;;;;;3.72;2.83;;;;;;;;;;6135876;23;20204;31
2021/07/23 12:40:31;;;;;;;4.38;3.58;;;;;;;;;;6290557;22;20542;31
2021/07/23 12:42:56;;;;;;;7.65;3.65;;;;;;;;;;6287600;22;20206;31
2021/07/23 12:50:09;;;;;;;7.07;3.47;;;;;;;;;;6311501;22;20198;-64
2021/07/23 12:54:25;;;;;;;6.47;3.28;;;;;;;;;;6258982;22;20538;31
2021/07/23 12:56:51;;;;;;;4.35;3.10;;;;;;;;;;6225925;22;20190;31
2021/07/23 13:17:57;;;;;;;5.45;3.50;;;;;;;;;;6332020;22;20560;31
2021/07/23 13:24:34;;;;;;;5.13;3.75;;;;;;;;;;6133939;23;20212;31
2021/07/23 13:45:06;;;;;;;6.25;3.53;;;;;;;;;;6196371;22;20209;31
2021/07/23 13:52:00;;;;;;;3.60;3.03;;;;;;;;;;6225228;22;20204;31
2021/07/23 13:58:57;;;;;;;6.05;3.42;;;;;;;;;;6287869;22;20204;31
2021/07/23 14:03:08;;;;;;;5.30;3.40;;;;;;;;;;6322734;22;20516;31
2021/07/23 14:12:48;;;;;;;4.72;2.97;;;;;;;;;;6313122;22;20202;31
2021/07/23 14:26:09;;;;;;;5.63;3.38;;;;;;;;;;5780855;23;20267;31
2021/07/23 14:40:29;;;;;;;8.00;3.30;;;;;;;;;;6320097;22;20949;-65
2021/07/23 14:51:40;;;;;;;4.13;3.33;;;;;;;;;;6260167;22;20550;31
2021/07/23 15:08:20;;;;;;;4.95;3.15;;;;;;;;;;6226350;22;20204;31
2021/07/23 15:15:14;;;;;;;3.97;2.80;;;;;;;;;;6195845;22;20200;31
2021/07/23 15:21:58;;;;;;;5.88;3.45;;;;;;;;;;6318720;22;20203;31
2021/07/23 15:42:21;;;;;;;4.13;3.42;;;;;;;;;;6285899;22;20216;31
2021/07/23 15:53:33;;;;;;;4.70;3.30;;;;;;;;;;6259342;22;20538;31
2021/07/23 16:09:46;;;;;;;5.40;3.53;;;;;;;;;;6226807;22;20205;31
2021/07/23 16:14:24;;;;;;;7.47;3.53;;;;;;;;;;6310750;22;20564;-65
2021/07/23 16:16:50;;;;;;;5.07;3.70;;;;;;;;;;6305558;22;20622;-65
2021/07/23 16:19:16;;;;;;;9.50;3.70;;;;;;;;;;6311534;22;20256;-65
2021/07/23 16:21:42;;;;;;;5.43;3.47;;;;;;;;;;6316339;22;20569;-66
2021/07/23 16:24:08;;;;;;;6.72;3.50;;;;;;;;;;6310681;22;20528;-64
2021/07/23 16:26:39;;;;;;;6.22;3.30;;;;;;;;;;6310338;22;20201;-66
2021/07/23 16:29:05;;;;;;;4.90;3.60;;;;;;;;;;6316369;22;20625;-65
2021/07/23 16:31:32;;;;;;;5.35;3.28;;;;;;;;;;6316098;22;20142;-66
2021/07/23 16:33:58;;;;;;;5.68;3.35;;;;;;;;;;6306642;22;20199;-64
2021/07/23 16:36:24;;;;;;;4.22;3.17;;;;;;;;;;6302004;22;20174;-65
2021/07/23 16:38:50;;;;;;;5.15;3.70;;;;;;;;;;6316172;22;20126;-66
2021/07/23 16:41:16;;;;;;;5.60;4.00;;;;;;;;;;6316256;22;20138;-66
2021/07/23 16:43:42;;;;;;;4.60;4.13;;;;;;;;;;6316010;22;20542;-65
2021/07/23 16:46:08;;;;;;;5.30;3.58;;;;;;;;;;6316482;22;20138;-65
2021/07/23 16:48:33;;;;;;;5.60;3.53;;;;;;;;;;6315966;22;20149;-65
2021/07/23 16:50:59;;;;;;;5.30;3.25;;;;;;;;;;6316331;22;20142;-66
2021/07/23 16:53:25;;;;;;;3.75;3.20;;;;;;;;;;6316219;22;20193;-65
2021/07/23 16:55:51;;;;;;;5.03;3.63;;;;;;;;;;6315888;22;20573;-65
2021/07/23 16:58:17;;;;;;;5.00;3.35;;;;;;;;;;6315764;22;20145;-65
2021/07/23 17:00:44;;;;;;;4.70;3.47;;;;;;;;;;6315834;22;20134;-66
2021/07/23 17:03:10;;;;;;;5.05;3.47;;;;;;;;;;6315863;22;20217;-66
2021/07/23 17:05:36;;;;;;;5.63;3.78;;;;;;;;;;6316140;22;20226;-65
2021/07/23 17:08:02;;;;;;;4.53;3.47;;;;;;;;;;6315922;22;20221;-66
2021/07/23 17:10:27;;;;;;;4.80;3.40;;;;;;;;;;6316032;22;20434;-66
2021/07/23 17:12:53;;;;;;;3.50;3.20;;;;;;;;;;6315449;22;20161;-66
2021/07/23 17:15:22;;;;;;;9.30;3.47;;;;;;;;;;6315505;22;20161;-65
2021/07/23 17:17:48;;;;;;;5.70;3.80;;;;;;;;;;6315558;22;20166;-66
2021/07/23 17:20:14;;;;;;;5.32;3.13;;;;;;;;;;6315916;22;20141;-65
2021/07/23 17:22:42;;;;;;;4.18;3.53;;;;;;;;;;6315848;22;20647;-65
2021/07/23 17:25:08;;;;;;;3.90;3.33;;;;;;;;;;6310193;22;20562;-65
2021/07/23 17:27:34;;;;;;;6.55;3.50;;;;;;;;;;6308457;22;20150;-65
2021/07/23 17:30:00;;;;;;;6.40;3.65;;;;;;;;;;6308546;22;20164;-65
2021/07/23 17:32:26;;;;;;;4.18;3.72;;;;;;;;;;6308216;22;20443;-66
2021/07/23 17:34:52;;;;;;;6.15;3.75;;;;;;;;;;6308427;22;20214;-66
2021/07/23 17:37:17;;;;;;;5.85;3.78;;;;;;;;;;6264302;22;20238;31
2021/07/23 17:52:24;;;;;;;4.95;3.65;;;;;;;;;;6286896;22;20203;31
2021/07/23 17:59:10;;;;;;;6.22;3.70;;;;;;;;;;6195319;22;21019;-64
2021/07/23 18:05:42;;;;;;;5.55;3.38;;;;;;;;;;6195524;22;20194;31
2021/07/23 18:12:37;;;;;;;6.78;3.80;;;;;;;;;;6171352;23;20198;31
2021/07/23 18:16:56;;;;;;;5.90;4.28;;;;;;;;;;6259957;22;20552;31
2021/07/23 18:33:49;;;;;;;7.55;3.97;;;;;;;;;;6224683;22;21607;31
2021/07/23 18:58:50;;;;;;;6.40;3.95;;;;;;;;;;6291161;22;20524;31
2021/07/23 19:15:31;;;;;;;7.78;4.18;;;;;;;;;;6258546;22;20204;31
2021/07/23 19:22:10;;;;;;;9.75;4.75;;;;;;;;;;6288261;22;20192;31
2021/07/23 19:28:50;;;;;;;6.60;5.05;;;;;;;;;;6171937;23;20202;31
2021/07/23 19:33:09;;;;;;;6.00;4.82;;;;;;;;;;6258067;22;20572;31
2021/07/23 19:42:32;;;;;;;5.40;4.85;;;;;;;;;;6287172;22;20562;31
2021/07/23 19:54:00;;;;;;;6.78;5.05;;;;;;;;;;6259990;22;20645;31
2021/07/23 20:00:54;;;;;;;7.25;5.13;;;;;;;;;;6289674;22;20576;31
2021/07/23 20:08:04;;;;;;;7.72;5.10;;;;;;;;;;6334511;22;20533;31
2021/07/23 20:24:18;;;;;;;8.52;6.72;;;;;;;;;;6288049;22;20199;31
2021/07/23 20:30:56;;;;;;;7.60;5.97;;;;;;;;;;6195754;22;20201;31
2021/07/23 20:44:28;;;;;;;8.50;6.18;;;;;;;;;;6289780;22;20200;31
2021/07/23 20:51:05;;;;;;;8.15;5.50;;;;;;;;;;6320225;22;20203;31
2021/07/23 20:57:43;;;;;;;9.60;6.22;;;;;;;;;;6142964;23;20199;31
2021/07/23 21:04:34;;;;;;;7.07;5.43;;;;;;;;;;6255358;22;20208;31
2021/07/23 21:25:10;;;;;;;9.15;6.50;;;;;;;;;;6224865;22;20210;31
2021/07/23 21:32:06;;;;;;;7.03;6.03;;;;;;;;;;6289224;22;20203;31
2021/07/23 21:38:52;;;;;;;8.07;6.05;;;;;;;;;;6197219;22;21213;-65
2021/07/23 21:50:05;;;;;;;8.18;6.32;;;;;;;;;;6345747;22;20538;31
2021/07/23 21:59:24;;;;;;;14.25;6.85;;;;;;;;;;6133895;23;23568;31
2021/07/23 22:17:24;;;;;;;8.52;6.65;;;;;;;;;;6289537;22;21585;31
2021/07/23 22:27:04;;;;;;;8.60;6.95;;;;;;;;;;6318121;22;20202;31
2021/07/23 22:31:17;;;;;;;7.82;7.03;;;;;;;;;;6227126;22;20934;31
2021/07/23 22:40:22;;;;;;;7.78;6.47;;;;;;;;;;6140389;23;20203;31
2021/07/23 23:08:31;;;;;;;8.80;6.40;;;;;;;;;;6169680;23;20209;31
2021/07/23 23:22:17;;;;;;;10.77;7.07;;;;;;;;;;6286093;22;20204;31
2021/07/23 23:29:44;;;;;;;12.57;7.90;;;;;;;;;;6287181;22;20204;31
2021/07/23 23:48:19;;;;;;;9.13;6.60;;;;;;;;;;6321159;22;20542;-62
2021/07/23 23:50:45;;;;;;;8.57;6.38;;;;;;;;;;6287512;22;20189;31
